Time;durP1;ratioP1;P1;durP2;ratioP2;P2;SDS_P1;SDS_P2;PMS_P1;PMS_P2;Temp;Humidity;BMP_temperature;BMP_pressure;BME280_temperature;BME280_humidity;BME280_pressure;Samples;Min_cycle;Max_cycle;Signal;HPM_P1;HPM_P2
2021/09/25 00:00:09;;;;;;;7.05;5.57;;;;;;;13.25;nan;100646.72;5051799;28;20068;-71
2021/09/25 00:02:34;;;;;;;5.13;4.28;;;;;;;13.23;nan;100637.25;5048935;28;20036;-71
2021/09/25 00:05:00;;;;;;;6.78;5.25;;;;;;;13.18;nan;100635.13;5048748;28;20033;-71
2021/09/25 00:07:25;;;;;;;7.55;5.50;;;;;;;13.11;nan;100642.09;5047304;28;20095;-71
2021/09/25 00:09:50;;;;;;;6.80;5.10;;;;;;;13.04;nan;100636.59;5045646;28;20051;-71
2021/09/25 00:12:16;;;;;;;7.00;5.38;;;;;;;12.98;nan;100626.63;5047470;28;20032;-71
2021/09/25 00:14:42;;;;;;;7.15;5.32;;;;;;;12.93;nan;100626.28;5048969;28;20516;-71
2021/09/25 00:17:09;;;;;;;6.63;5.18;;;;;;;12.94;nan;100633.25;5046355;28;20025;-71
2021/09/25 00:19:36;;;;;;;8.85;5.28;;;;;;;12.88;nan;100629.44;5048996;28;20059;-71
2021/09/25 00:22:01;;;;;;;8.88;4.88;;;;;;;12.83;nan;100628.28;5044430;28;20045;-71
2021/09/25 00:24:27;;;;;;;6.45;4.00;;;;;;;12.81;nan;100627.59;5047695;28;20060;-71
2021/09/25 00:26:52;;;;;;;5.63;3.70;;;;;;;12.80;nan;100633.91;5050632;28;20115;-71
2021/09/25 00:29:18;;;;;;;7.28;5.20;;;;;;;12.94;nan;100643.88;5054659;28;20098;-71
2021/09/25 00:31:44;;;;;;;4.57;3.90;;;;;;;12.97;nan;100640.91;5047697;28;20910;-71
2021/09/25 00:34:10;;;;;;;5.03;3.90;;;;;;;12.96;nan;100648.00;5053063;28;20025;-72
2021/09/25 00:36:35;;;;;;;7.53;5.82;;;;;;;12.85;nan;100647.53;5051954;28;20490;-71
2021/09/25 00:39:00;;;;;;;7.50;5.60;;;;;;;12.90;nan;100642.56;5048646;28;20033;-71
2021/09/25 00:41:26;;;;;;;6.60;5.43;;;;;;;12.84;nan;100643.19;5048639;28;20032;-71
2021/09/25 00:43:52;;;;;;;9.05;5.80;;;;;;;12.91;nan;100654.81;5047937;28;20084;-71
2021/09/25 00:46:19;;;;;;;;;;;;;;;12.92;nan;100640.56;5048859;28;20026;-71
2021/09/25 00:48:45;;;;;;;6.55;4.63;;;;;;;12.88;nan;100634.75;5048696;28;19979;-71
2021/09/25 00:51:10;;;;;;;5.60;4.72;;;;;;;12.86;nan;100639.38;5056864;28;20052;-71
2021/09/25 00:53:36;;;;;;;3.67;3.23;;;;;;;12.86;nan;100642.03;5047381;28;20398;-71
2021/09/25 00:56:02;;;;;;;3.58;2.78;;;;;;;12.83;nan;100638.91;5058152;28;20411;-71
2021/09/25 00:58:28;;;;;;;3.70;3.30;;;;;;;12.86;nan;100646.53;5046771;28;20487;-71
2021/09/25 01:00:53;;;;;;;4.23;3.67;;;;;;;12.70;nan;100648.16;5042798;28;20401;-71
2021/09/25 01:03:18;;;;;;;3.50;3.03;;;;;;;12.72;nan;100640.84;5047360;28;20410;-71
2021/09/25 01:05:45;;;;;;;3.00;2.40;;;;;;;12.77;nan;100640.38;5047022;28;20421;-71
2021/09/25 01:08:14;;;;;;;2.67;2.30;;;;;;;12.87;nan;100648.16;5046846;28;20414;-71
2021/09/25 01:10:40;;;;;;;3.40;2.63;;;;;;;12.94;nan;100641.22;5046941;28;20901;-71
2021/09/25 01:13:06;;;;;;;2.20;1.80;;;;;;;12.89;nan;100644.34;5047156;28;20790;-71
2021/09/25 01:15:33;;;;;;;1.93;1.70;;;;;;;12.87;nan;100649.03;5046737;28;20397;-71
2021/09/25 01:17:59;;;;;;;2.65;2.10;;;;;;;12.83;nan;100645.03;5049845;28;20953;-72
2021/09/25 01:20:24;;;;;;;;;;;;;;;12.71;nan;100641.03;5051898;28;20194;-71
2021/09/25 01:22:50;;;;;;;;;;;;;;;12.57;nan;100637.19;5051843;28;19947;-71
2021/09/25 01:25:15;;;;;;;;;;;;;;;12.49;nan;100648.59;5051526;28;19943;-72
2021/09/25 01:27:40;;;;;;;;;;;;;;;12.43;nan;100643.94;5051743;28;20407;-71
2021/09/25 01:30:09;;;;;;;;;;;;;;;12.36;nan;100637.59;5051022;28;19916;-72
2021/09/25 01:32:34;;;;;;;5.95;4.60;;;;;;;12.27;nan;100630.63;5049607;28;19952;-72
2021/09/25 01:35:00;;;;;;;5.13;4.43;;;;;;;12.22;nan;100632.91;5051293;28;20048;-71
2021/09/25 01:37:25;;;;;;;5.88;4.18;;;;;;;12.16;nan;100634.41;5051057;28;20037;-71
2021/09/25 01:39:51;;;;;;;4.90;3.78;;;;;;;12.11;nan;100634.88;5051288;28;20033;-71
2021/09/25 01:42:16;;;;;;;5.35;3.70;;;;;;;12.06;nan;100625.72;5050469;28;20041;-72
2021/09/25 01:44:41;;;;;;;3.80;3.20;;;;;;;12.07;nan;100624.75;5049652;28;20459;-71
2021/09/25 01:47:07;;;;;;;2.77;2.40;;;;;;;12.09;nan;100628.06;5049858;28;20905;-71
2021/09/25 01:49:32;;;;;;;2.83;2.40;;;;;;;12.13;nan;100625.91;5050604;28;20420;-71
2021/09/25 01:51:57;;;;;;;3.90;3.15;;;;;;;12.07;nan;100620.28;5050937;28;20133;-71
2021/09/25 01:54:23;;;;;;;4.68;3.10;;;;;;;12.02;nan;100619.91;5050256;28;20025;-71
2021/09/25 01:56:48;;;;;;;3.80;3.00;;;;;;;12.02;nan;100619.91;5050798;28;20033;-71
2021/09/25 01:59:13;;;;;;;3.88;3.10;;;;;;;12.02;nan;100616.44;5050916;28;20047;-71
2021/09/25 02:01:39;;;;;;;3.50;2.95;;;;;;;11.97;nan;100624.88;5049125;28;20037;-71
2021/09/25 02:04:05;;;;;;;3.55;2.78;;;;;;;12.00;nan;100636.97;5050199;28;20082;-71
2021/09/25 02:06:30;;;;;;;2.58;2.28;;;;;;;12.01;nan;100631.53;5055840;28;20504;-71
2021/09/25 02:08:56;;;;;;;2.97;2.33;;;;;;;12.01;nan;100626.22;5051625;28;20029;-71
2021/09/25 02:11:22;;;;;;;3.30;2.20;;;;;;;12.04;nan;100630.38;5051159;28;20029;-71
2021/09/25 02:13:47;;;;;;;3.25;2.30;;;;;;;12.01;nan;100630.66;5058193;28;20028;-71
2021/09/25 02:16:13;;;;;;;3.22;2.38;;;;;;;11.99;nan;100636.16;5050939;28;20078;-71
2021/09/25 02:18:38;;;;;;;3.35;2.38;;;;;;;12.02;nan;100645.59;5051032;28;20112;-71
2021/09/25 02:21:05;;;;;;;4.35;3.03;;;;;;;11.94;nan;100645.53;5050955;28;20025;-71
2021/09/25 02:23:32;;;;;;;5.65;4.05;;;;;;;11.85;nan;100636.69;5049832;28;20435;-71
2021/09/25 02:25:59;;;;;;;4.90;3.40;;;;;;;11.86;nan;100639.19;5053097;28;20040;-71
2021/09/25 02:28:24;;;;;;;5.28;3.67;;;;;;;11.87;nan;100632.94;5048508;28;20036;-71
2021/09/25 02:30:49;;;;;;;5.32;4.10;;;;;;;11.85;nan;100631.41;5048276;28;20041;-71
2021/09/25 02:33:15;;;;;;;5.22;4.25;;;;;;;11.83;nan;100636.84;5051791;28;20033;-71
2021/09/25 02:35:41;;;;;;;5.93;4.18;;;;;;;11.83;nan;100639.50;5047275;28;20036;-71
2021/09/25 02:38:06;;;;;;;4.50;3.90;;;;;;;11.81;nan;100638.00;5046995;28;20033;-71
2021/09/25 02:40:32;;;;;;;5.97;4.40;;;;;;;11.74;nan;100644.91;5050227;28;20048;-71
2021/09/25 02:42:57;;;;;;;5.45;4.07;;;;;;;11.63;nan;100641.53;5052603;28;20120;-71
2021/09/25 02:45:23;;;;;;;5.43;4.40;;;;;;;11.55;nan;100638.00;5050943;28;20025;-71
2021/09/25 02:47:48;;;;;;;4.90;3.85;;;;;;;11.54;nan;100639.81;5051053;28;20048;-71
2021/09/25 02:50:15;;;;;;;6.82;4.32;;;;;;;11.59;nan;100639.38;5049223;28;20029;-72
2021/09/25 02:52:40;;;;;;;5.38;4.15;;;;;;;11.63;nan;100638.91;5050689;28;20173;-71
2021/09/25 02:55:07;;;;;;;5.25;3.90;;;;;;;11.70;nan;100644.38;5049518;28;20099;-71
2021/09/25 02:57:33;;;;;;;5.22;3.83;;;;;;;11.66;nan;100641.22;5050481;28;21525;-71
2021/09/25 02:59:58;;;;;;;3.95;3.08;;;;;;;11.66;nan;100635.09;5049781;28;20081;-71
2021/09/25 03:02:24;;;;;;;5.40;4.03;;;;;;;11.57;nan;100644.81;5049293;28;20075;-71
2021/09/25 03:04:49;;;;;;;5.22;3.90;;;;;;;11.52;nan;100630.38;5048454;28;20041;-71
2021/09/25 03:07:14;;;;;;;5.45;4.40;;;;;;;11.51;nan;100632.16;5048316;28;20060;-71
2021/09/25 03:09:40;;;;;;;5.63;4.30;;;;;;;11.43;nan;100619.72;5049539;28;20041;-71
2021/09/25 03:12:05;;;;;;;6.22;4.45;;;;;;;11.37;nan;100628.28;5048824;28;20041;-71
2021/09/25 03:14:31;;;;;;;5.50;4.38;;;;;;;11.29;nan;100619.44;5051576;28;20045;-71
2021/09/25 03:16:56;;;;;;;6.25;4.68;;;;;;;11.20;nan;100622.03;5048855;28;20086;-71
2021/09/25 03:19:21;;;;;;;5.45;4.50;;;;;;;11.15;nan;100619.00;5050014;28;20052;-72
2021/09/25 03:21:46;;;;;;;;;;;;;;;11.13;nan;100623.66;5049617;28;20043;-72
2021/09/25 03:24:12;;;;;;;;;;;;;;;11.10;nan;100625.75;5049501;28;19921;-72
2021/09/25 03:26:37;;;;;;;5.50;4.28;;;;;;;11.08;nan;100622.41;5048499;28;19916;-72
2021/09/25 03:29:03;;;;;;;;;;;;;;;11.07;nan;100632.19;5049791;28;20029;-72
2021/09/25 03:31:28;;;;;;;5.97;3.83;;;;;;;11.04;nan;100628.03;5049197;28;20397;-72
2021/09/25 03:33:53;;;;;;;;;;;;;;;11.00;nan;100631.13;5048163;28;20466;-72
2021/09/25 03:36:19;;;;;;;4.53;3.57;;;;;;;10.96;nan;100635.03;5048640;28;19916;-72
2021/09/25 03:38:44;;;;;;;5.00;3.60;;;;;;;10.94;nan;100637.00;5049166;28;20302;-72
2021/09/25 03:41:09;;;;;;;3.37;2.93;;;;;;;10.95;nan;100636.03;5046970;28;20444;-72
2021/09/25 03:43:34;;;;;;;4.25;3.03;;;;;;;11.01;nan;100635.41;5048837;28;20068;-72
2021/09/25 03:46:00;;;;;;;4.15;3.10;;;;;;;11.04;nan;100628.03;5048834;28;20045;-72
2021/09/25 03:48:25;;;;;;;4.22;3.00;;;;;;;11.08;nan;100633.81;5050269;28;20116;-72
2021/09/25 03:50:53;;;;;;;2.77;2.27;;;;;;;11.20;nan;100629.13;5047565;28;20413;-72
2021/09/25 03:53:18;;;;;;;3.47;2.45;;;;;;;11.29;nan;100627.38;5049388;28;20082;-72
2021/09/25 03:55:44;;;;;;;4.45;2.58;;;;;;;11.35;nan;100618.84;5046877;28;20064;-72
2021/09/25 03:58:09;;;;;;;2.80;2.10;;;;;;;11.32;nan;100625.28;5048349;28;20037;-72
2021/09/25 04:00:42;;;;;;;3.40;2.05;;;;;;;11.32;nan;100617.34;5046341;28;20041;-72
2021/09/25 04:03:07;;;;;;;3.85;2.38;;;;;;;11.24;nan;100619.91;5047997;28;20453;-72
2021/09/25 04:05:32;;;;;;;3.72;2.30;;;;;;;11.17;nan;100617.03;5063943;23;20052;-72
2021/09/25 04:07:57;;;;;;;3.03;2.30;;;;;;;11.11;nan;100617.66;5050931;28;20124;-72
2021/09/25 04:10:23;;;;;;;;;;;;;;;11.10;nan;100625.75;5036287;28;20036;-72
2021/09/25 04:12:48;;;;;;;;;;;;;;;11.12;nan;100627.25;5033397;28;19917;-72
2021/09/25 04:15:13;;;;;;;3.13;2.27;;;;;;;11.17;nan;100624.16;5061421;28;19915;-73
2021/09/25 04:17:39;;;;;;;;;;;;;;;11.20;nan;100624.69;5069341;28;20270;-72
2021/09/25 04:20:05;;;;;;;;;;;;;;;11.24;nan;100623.38;5068938;28;20312;-72
2021/09/25 04:22:31;;;;;;;2.55;1.83;;;;;;;11.19;nan;100623.00;5050973;28;20493;-72
2021/09/25 04:24:56;;;;;;;3.03;2.25;;;;;;;11.25;nan;100627.69;5050697;28;20083;-72
2021/09/25 04:27:22;;;;;;;4.93;2.80;;;;;;;11.32;nan;100635.00;5069063;28;20235;-72
2021/09/25 04:29:47;;;;;;;5.72;2.60;;;;;;;11.29;nan;100635.34;5068921;28;20032;-72
2021/09/25 04:32:12;;;;;;;5.40;2.40;;;;;;;11.29;nan;100635.34;5049925;28;20060;-71
2021/09/25 04:34:37;;;;;;;3.28;2.40;;;;;;;11.21;nan;100628.97;5069568;28;20527;-72
2021/09/25 04:37:03;;;;;;;3.28;2.13;;;;;;;11.22;nan;100625.34;5068536;28;20035;-72
2021/09/25 04:39:28;;;;;;;2.47;1.80;;;;;;;11.26;nan;100625.88;5075303;28;20505;-73
2021/09/25 04:41:54;;;;;;;2.72;2.20;;;;;;;11.26;nan;100632.00;5071031;28;20492;-72
2021/09/25 04:44:19;;;;;;;3.38;2.17;;;;;;;11.22;nan;100625.34;5067810;28;20032;-73
2021/09/25 04:46:45;;;;;;;;;;;;;;;11.19;nan;100624.84;5050941;28;20075;-73
2021/09/25 04:49:10;;;;;;;3.30;2.30;;;;;;;11.12;nan;100623.78;5069534;28;19912;-72
2021/09/25 04:51:36;;;;;;;4.43;2.55;;;;;;;11.04;nan;100624.56;5072823;28;20455;-72
2021/09/25 04:54:03;;;;;;;3.05;2.17;;;;;;;11.00;nan;100625.84;5052772;28;20036;-72
2021/09/25 04:56:29;;;;;;;3.03;2.25;;;;;;;10.96;nan;100622.66;5058575;28;20507;-72
2021/09/25 04:58:54;;;;;;;3.00;2.33;;;;;;;10.95;nan;100615.69;5072318;28;20055;-73
2021/09/25 05:01:20;;;;;;;3.38;2.53;;;;;;;11.04;nan;100619.25;5068270;28;20064;-72
2021/09/25 05:03:45;;;;;;;2.90;2.20;;;;;;;11.02;nan;100616.75;5061570;28;20043;-72
2021/09/25 05:06:10;;;;;;;3.53;2.58;;;;;;;11.08;nan;100633.00;5071344;28;20091;-72
2021/09/25 05:08:36;;;;;;;4.65;2.97;;;;;;;11.10;nan;100642.44;5072319;28;20086;-73
2021/09/25 05:11:01;;;;;;;3.90;3.00;;;;;;;11.08;nan;100639.13;5072677;28;20602;-72
2021/09/25 05:13:27;;;;;;;4.70;3.17;;;;;;;11.05;nan;100632.31;5071815;28;20115;-73
2021/09/25 05:15:52;;;;;;;;;;;;;;;10.97;nan;100634.09;5079154;28;20047;-73
2021/09/25 05:18:18;;;;;;;10.33;3.77;;;;;;;10.99;nan;100634.75;5073008;28;20389;-72
2021/09/25 05:20:43;;;;;;;8.68;3.63;;;;;;;10.90;nan;100640.97;5072153;28;20037;-73
2021/09/25 05:23:09;;;;;;;;;;;;;;;10.80;nan;100641.88;5036998;28;20119;-73
2021/09/25 05:25:34;;;;;;;;;;;;;;;10.80;nan;100647.16;5074268;28;19966;-73
2021/09/25 05:28:00;;;;;;;;;;;;;;;10.80;nan;100652.44;5054803;28;19939;-73
2021/09/25 05:30:26;;;;;;;6.00;3.90;;;;;;;10.75;nan;100653.84;5073585;28;19919;-73
2021/09/25 05:32:51;;;;;;;6.65;4.00;;;;;;;10.70;nan;100646.41;5071974;28;20314;-72
2021/09/25 05:35:16;;;;;;;6.43;4.10;;;;;;;10.64;nan;100646.97;5054105;28;21276;-73
2021/09/25 05:37:42;;;;;;;4.53;3.00;;;;;;;10.61;nan;100647.28;5071102;28;20404;-73
2021/09/25 05:40:08;;;;;;;2.60;2.20;;;;;;;10.70;nan;100645.53;5072883;28;20404;-73
2021/09/25 05:42:33;;;;;;;5.53;3.15;;;;;;;10.77;nan;100636.88;5075505;28;20044;-72
2021/09/25 05:44:59;;;;;;;5.13;3.35;;;;;;;10.82;nan;100639.03;5072214;28;20036;-73
2021/09/25 05:47:25;;;;;;;6.63;4.25;;;;;;;10.76;nan;100643.13;5071766;28;20245;-72
2021/09/25 05:49:51;;;;;;;;;;;;;;;10.73;nan;100646.09;5054735;28;20536;-73
2021/09/25 05:52:17;;;;;;;;;;;;;;;10.73;nan;100655.84;5071893;28;19916;-73
2021/09/25 05:54:42;;;;;;;6.35;3.85;;;;;;;10.84;nan;100656.47;5071030;28;20462;-72
2021/09/25 05:57:08;;;;;;;5.47;3.75;;;;;;;11.07;nan;100653.34;5072076;28;20124;-73
2021/09/25 05:59:35;;;;;;;4.75;3.30;;;;;;;11.55;nan;100659.19;5071590;28;20123;-73
2021/09/25 06:02:01;;;;;;;3.67;2.90;;;;;;;12.14;nan;100662.06;5071521;28;20059;-72
2021/09/25 06:04:26;;;;;;;4.13;2.85;;;;;;;12.67;nan;100659.09;5069423;28;20036;-73
2021/09/25 06:06:52;;;;;;;4.60;3.20;;;;;;;13.23;nan;100669.97;5079647;28;20384;-73
2021/09/25 06:09:17;;;;;;;5.07;3.30;;;;;;;13.73;nan;100671.63;5070946;28;20067;-73
2021/09/25 06:11:42;;;;;;;7.07;3.80;;;;;;;14.10;nan;100667.53;5053772;28;20075;-73
2021/09/25 06:14:08;;;;;;;7.72;3.85;;;;;;;14.22;nan;100675.97;5072303;28;20085;-73
2021/09/25 06:16:33;;;;;;;4.88;3.60;;;;;;;14.40;nan;100678.41;5075165;28;20333;-73
2021/09/25 06:18:59;;;;;;;6.65;3.95;;;;;;;14.74;nan;100669.28;5071249;28;20060;-73
2021/09/25 06:21:25;;;;;;;6.20;4.45;;;;;;;15.22;nan;100664.59;5054080;28;20032;-73
2021/09/25 06:23:50;;;;;;;6.32;4.38;;;;;;;15.50;nan;100678.19;5071017;28;20024;-73
2021/09/25 06:26:16;;;;;;;8.27;4.35;;;;;;;15.88;nan;100670.19;5070978;28;20462;-73
2021/09/25 06:28:41;;;;;;;6.50;4.07;;;;;;;16.45;nan;100666.03;5071230;28;20048;-73
2021/09/25 06:31:07;;;;;;;6.07;4.13;;;;;;;16.71;nan;100654.84;5053313;28;20056;-73
2021/09/25 06:33:32;;;;;;;6.68;4.25;;;;;;;16.88;nan;100650.94;5070479;28;20511;-74
2021/09/25 06:35:57;;;;;;;5.05;3.65;;;;;;;17.26;nan;100649.84;5070227;28;20546;-73
2021/09/25 06:38:23;;;;;;;4.40;3.50;;;;;;;17.57;nan;100655.66;5071828;28;20558;-72
2021/09/25 06:40:48;;;;;;;4.97;3.75;;;;;;;17.98;nan;100651.41;5070763;28;20120;-73
2021/09/25 06:43:14;;;;;;;5.47;4.10;;;;;;;18.21;nan;100651.09;5070408;28;20020;-73
2021/09/25 06:45:40;;;;;;;5.50;3.95;;;;;;;18.48;nan;100641.34;5052535;28;20048;-73
2021/09/25 06:48:06;;;;;;;5.60;3.47;;;;;;;18.97;nan;100644.78;5071167;28;20071;-73
2021/09/25 06:50:31;;;;;;;4.75;2.88;;;;;;;18.85;nan;100639.19;5073409;28;20040;-73
2021/09/25 06:52:57;;;;;;;4.82;2.80;;;;;;;18.41;nan;100637.81;5052044;28;20028;-73
2021/09/25 06:55:23;;;;;;;3.35;2.53;;;;;;;18.07;nan;100644.03;5069631;28;20555;-73
2021/09/25 06:57:48;;;;;;;3.17;2.40;;;;;;;17.62;nan;100639.03;5052191;28;20480;-73
2021/09/25 07:00:14;;;;;;;2.88;2.20;;;;;;;17.32;nan;100638.38;5069616;28;20355;-73
2021/09/25 07:02:40;;;;;;;3.38;2.30;;;;;;;16.93;nan;100639.69;5051858;28;20033;-73
2021/09/25 07:05:08;;;;;;;2.38;1.90;;;;;;;16.68;nan;100634.66;5069625;28;20431;-73
2021/09/25 07:07:34;;;;;;;3.47;2.20;;;;;;;16.53;nan;100648.06;5051705;28;20037;-73
2021/09/25 07:09:59;;;;;;;2.85;2.10;;;;;;;16.51;nan;100654.59;5068244;28;20029;-73
2021/09/25 07:12:25;;;;;;;3.50;1.83;;;;;;;16.53;nan;100650.72;5068340;28;20485;-73
2021/09/25 07:14:51;;;;;;;4.45;2.60;;;;;;;16.73;nan;100653.63;5075192;28;20062;-73
2021/09/25 07:17:16;;;;;;;2.33;1.90;;;;;;;17.00;nan;100661.13;5069491;28;20033;-73
2021/09/25 07:19:41;;;;;;;2.95;2.20;;;;;;;17.44;nan;100666.22;5069755;28;20040;-74
2021/09/25 07:22:07;;;;;;;;;;;;;;;18.20;nan;100662.84;5069446;28;20036;-73
2021/09/25 07:24:34;;;;;;;3.45;1.90;;;;;;;18.88;nan;100663.75;5055181;28;19924;-73
2021/09/25 07:27:00;;;;;;;2.88;2.17;;;;;;;19.00;nan;100663.16;5061620;28;20043;-73
2021/09/25 07:29:25;;;;;;;2.92;2.00;;;;;;;19.64;nan;100667.91;5068948;28;20036;-73
2021/09/25 07:31:50;;;;;;;3.05;1.92;;;;;;;19.97;nan;100658.16;5051289;28;20028;-73
2021/09/25 07:34:16;;;;;;;2.65;1.73;;;;;;;20.45;nan;100655.94;5069398;28;20028;-73
2021/09/25 07:36:41;;;;;;;3.00;1.98;;;;;;;21.10;nan;100658.47;5051744;28;20506;-73
2021/09/25 07:39:07;;;;;;;3.75;2.40;;;;;;;21.47;nan;100665.88;5068968;28;20416;-73
2021/09/25 07:41:32;;;;;;;3.58;2.00;;;;;;;21.83;nan;100671.34;5043058;28;20353;-73
2021/09/25 07:43:59;;;;;;;2.60;1.83;;;;;;;22.43;nan;100678.78;5067904;28;20028;-74
2021/09/25 07:46:25;;;;;;;2.60;1.92;;;;;;;23.02;nan;100684.41;5068460;28;20036;-74
2021/09/25 07:48:50;;;;;;;2.55;1.80;;;;;;;23.37;nan;100685.56;5070347;28;20395;-74
2021/09/25 07:51:16;;;;;;;3.13;2.10;;;;;;;23.71;nan;100692.84;5069139;28;20035;-74
2021/09/25 07:53:41;;;;;;;2.53;2.00;;;;;;;23.92;nan;100691.47;5069832;28;20661;-74
2021/09/25 07:56:06;;;;;;;2.90;2.17;;;;;;;24.28;nan;100696.81;5068345;28;20116;-74
2021/09/25 07:58:32;;;;;;;2.95;2.22;;;;;;;25.01;nan;100687.16;5068775;28;20044;-74
2021/09/25 08:00:57;;;;;;;2.83;2.50;;;;;;;25.60;nan;100703.88;5077469;28;20029;-74
2021/09/25 08:03:22;;;;;;;2.78;1.80;;;;;;;25.44;nan;100693.88;5051397;28;20197;-74
2021/09/25 08:05:48;;;;;;;4.85;3.50;;;;;;;25.87;nan;100694.28;5076714;28;20488;-74
2021/09/25 08:08:13;;;;;;;6.35;4.05;;;;;;;24.85;nan;100693.34;5050523;28;20032;-74
2021/09/25 08:10:38;;;;;;;5.35;3.70;;;;;;;25.97;nan;100692.50;5069456;28;20036;-74
2021/09/25 08:13:04;;;;;;;4.63;3.55;;;;;;;25.91;nan;100687.25;5051332;28;20051;-74
2021/09/25 08:15:29;;;;;;;4.43;3.15;;;;;;;26.60;nan;100697.63;5071713;28;20028;-74
2021/09/25 08:17:55;;;;;;;5.00;3.58;;;;;;;27.01;nan;100698.09;5077478;28;20036;-74
2021/09/25 08:20:23;;;;;;;4.22;2.65;;;;;;;27.20;nan;100695.84;5050970;28;20041;-75
2021/09/25 08:22:49;;;;;;;4.57;3.83;;;;;;;27.95;nan;100699.38;5069009;28;20725;-74
2021/09/25 08:25:14;;;;;;;7.35;4.10;;;;;;;28.37;nan;100706.66;5050841;28;20068;-74
2021/09/25 08:27:40;;;;;;;5.57;3.85;;;;;;;27.89;nan;100698.53;5049723;28;20033;-74
2021/09/25 08:30:08;;;;;;;4.18;3.20;;;;;;;27.74;nan;100704.69;5068694;28;20033;-74
2021/09/25 08:32:33;;;;;;;4.97;3.90;;;;;;;28.73;nan;100696.72;5051660;28;20032;-74
2021/09/25 08:34:59;;;;;;;6.28;3.63;;;;;;;28.70;nan;100701.88;5069397;28;20020;-74
2021/09/25 08:37:24;;;;;;;5.88;3.40;;;;;;;28.32;nan;100698.47;5069252;28;20040;-75
2021/09/25 08:39:49;;;;;;;4.28;3.10;;;;;;;28.44;nan;100698.25;5070034;28;20500;-74
2021/09/25 08:42:17;;;;;;;4.82;2.88;;;;;;;28.93;nan;100693.22;5068363;28;20033;-74
2021/09/25 08:44:44;;;;;;;5.70;3.47;;;;;;;29.77;nan;100692.97;5068859;28;20032;-74
2021/09/25 08:47:09;;;;;;;3.78;3.20;;;;;;;30.56;nan;100694.06;5067918;28;20063;-74
2021/09/25 08:49:35;;;;;;;6.78;4.13;;;;;;;29.59;nan;100688.88;5066596;28;20063;-74
2021/09/25 08:52:01;;;;;;;5.30;4.03;;;;;;;30.28;nan;100687.38;5068692;28;20036;-72
2021/09/25 08:54:27;;;;;;;3.47;3.10;;;;;;;30.33;nan;100698.25;5068460;28;20039;-74
2021/09/25 08:56:53;;;;;;;5.47;4.07;;;;;;;31.00;nan;100695.97;5069149;28;20036;-73
2021/09/25 08:59:18;;;;;;;4.80;4.07;;;;;;;30.90;nan;100691.41;5069520;28;20027;-73
2021/09/25 09:01:44;;;;;;;3.88;3.40;;;;;;;29.97;nan;100683.94;5069153;28;20051;-73
2021/09/25 09:04:10;;;;;;;5.55;4.00;;;;;;;30.12;nan;100691.22;5068855;28;20119;-73
2021/09/25 09:06:36;;;;;;;5.30;4.68;;;;;;;30.85;nan;100696.09;5068986;28;20060;-73
2021/09/25 09:09:09;;;;;;;7.32;5.57;;;;;;;31.25;nan;100692.25;5069061;28;20119;-74
2021/09/25 09:11:48;;;;;;;5.07;3.90;;;;;;;31.20;nan;100689.56;5068563;28;20059;-74
2021/09/25 09:14:16;;;;;;;6.07;4.57;;;;;;;31.86;nan;100693.59;5062871;28;20068;-75
2021/09/25 09:16:42;;;;;;;4.93;4.13;;;;;;;31.37;nan;100691.88;5064694;28;20029;-75
2021/09/25 09:19:07;;;;;;;5.38;4.40;;;;;;;31.62;nan;100690.03;5068752;28;20074;-74
2021/09/25 09:21:33;;;;;;;7.00;4.55;;;;;;;31.31;nan;100685.63;5072515;28;20733;-75
2021/09/25 09:24:08;;;;;;;4.43;3.50;;;;;;;31.09;nan;100691.56;5067784;28;20031;-75
2021/09/25 09:26:36;;;;;;;5.68;4.93;;;;;;;30.82;nan;100693.88;5067635;28;20040;-75
2021/09/25 09:29:05;;;;;;;6.10;4.10;;;;;;;29.53;nan;100679.06;5050773;28;20025;-75
2021/09/25 09:31:31;;;;;;;4.30;3.60;;;;;;;28.52;nan;100676.81;5068059;28;20044;-75
2021/09/25 09:33:58;;;;;;;5.07;4.22;;;;;;;28.03;nan;100676.31;5069199;28;20366;-75
2021/09/25 09:36:39;;;;;;;4.93;3.30;;;;;;;27.39;nan;100675.38;5068041;28;20041;-73
2021/09/25 09:39:07;;;;;;;5.60;4.18;;;;;;;28.04;nan;100681.50;5064726;28;20036;-73
2021/09/25 09:41:36;;;;;;;;;;;;;;;27.39;nan;100685.38;5053286;28;20133;-73
2021/09/25 09:44:13;;;;;;;4.28;3.20;;;;;;;27.27;nan;100670.13;5065973;28;19912;-73
2021/09/25 09:46:42;;;;;;;5.88;3.70;;;;;;;26.90;nan;100665.41;5072352;28;20036;-73
2021/09/25 09:49:12;;;;;;;6.38;3.83;;;;;;;26.13;nan;100661.03;5073095;28;20086;-73
2021/09/25 09:51:43;;;;;;;4.50;3.67;;;;;;;25.57;nan;100658.31;5073459;28;20059;-74
2021/09/25 09:54:20;;;;;;;5.95;3.55;;;;;;;25.07;nan;100661.81;5053095;28;20323;-74
2021/09/25 09:56:48;;;;;;;4.90;4.22;;;;;;;25.36;nan;100664.47;5071335;28;20040;-74
2021/09/25 09:59:14;;;;;;;4.57;4.05;;;;;;;25.07;nan;100659.13;5073342;28;20032;-73
2021/09/25 10:01:40;;;;;;;5.28;3.78;;;;;;;25.25;nan;100654.59;5053328;28;20048;-73
2021/09/25 10:04:07;;;;;;;6.55;4.50;;;;;;;25.30;nan;100647.34;5070981;28;20021;-73
2021/09/25 10:06:36;;;;;;;5.90;4.32;;;;;;;24.99;nan;100640.59;5070317;28;20420;-72
2021/09/25 10:09:03;;;;;;;;;;;;;;;24.96;nan;100643.78;5048528;28;20374;-74
2021/09/25 10:11:30;;;;;;;8.05;4.53;;;;;;;24.59;nan;100644.19;5070266;28;19925;-73
2021/09/25 10:13:56;;;;;;;6.10;4.40;;;;;;;24.51;nan;100644.59;5071567;28;20067;-72
2021/09/25 10:16:22;;;;;;;4.95;3.92;;;;;;;24.49;nan;100644.84;5075705;28;20055;-72
2021/09/25 10:18:50;;;;;;;5.63;3.97;;;;;;;24.12;nan;100647.03;5075661;28;20048;-74
2021/09/25 10:21:16;;;;;;;5.00;3.67;;;;;;;23.64;nan;100638.13;5071905;28;20697;-73
2021/09/25 10:23:49;;;;;;;6.40;4.13;;;;;;;23.49;nan;100635.91;5071537;28;20388;-73
2021/09/25 10:26:18;;;;;;;6.07;4.82;;;;;;;23.22;nan;100632.03;5058059;28;20035;-73
2021/09/25 10:29:00;;;;;;;5.30;4.18;;;;;;;23.50;nan;100629.47;5072409;28;20036;-74
2021/09/25 10:31:26;;;;;;;5.30;3.90;;;;;;;23.24;nan;100629.91;5071760;28;20130;-73
2021/09/25 10:34:08;;;;;;;4.93;3.90;;;;;;;22.90;nan;100627.72;5046058;28;20058;-73
2021/09/25 10:36:38;;;;;;;5.10;3.78;;;;;;;22.66;nan;100629.50;5067856;28;20040;-74
2021/09/25 10:39:34;;;;;;;6.65;5.28;;;;;;;23.00;nan;100621.81;5071496;28;20095;-73
2021/09/25 10:42:21;;;;;;;6.43;5.40;;;;;;;22.93;nan;100629.16;5052638;28;20032;-73
2021/09/25 10:44:52;;;;;;;5.20;4.70;;;;;;;22.92;nan;100632.88;5069881;28;20037;-73
2021/09/25 10:47:24;;;;;;;5.10;4.10;;;;;;;22.81;nan;100629.13;5071591;28;20444;-74
2021/09/25 10:49:58;;;;;;;5.72;3.97;;;;;;;22.64;nan;100633.50;5073264;28;20396;-74
2021/09/25 10:52:40;;;;;;;5.05;4.40;;;;;;;22.75;nan;100629.22;5070497;28;20056;-74
2021/09/25 10:55:25;;;;;;;5.43;4.10;;;;;;;22.92;nan;100627.50;5054969;28;20055;-74
2021/09/25 10:58:18;;;;;;;5.40;4.40;;;;;;;23.18;nan;100625.47;5050931;28;20036;-73
2021/09/25 11:00:46;;;;;;;4.82;3.65;;;;;;;23.23;nan;100628.28;5071078;28;20044;-72
2021/09/25 11:03:46;;;;;;;5.13;3.95;;;;;;;23.31;nan;100623.38;5052621;28;20032;-72
2021/09/25 11:06:13;;;;;;;6.15;4.15;;;;;;;23.28;nan;100621.13;5065080;28;20068;-72
2021/09/25 11:08:53;;;;;;;5.65;3.95;;;;;;;23.07;nan;100610.88;5070240;28;20670;-73
2021/09/25 11:11:40;;;;;;;5.15;3.53;;;;;;;23.12;nan;100605.66;5052431;28;20086;-73
2021/09/25 11:14:12;;;;;;;4.82;3.63;;;;;;;23.24;nan;100601.06;5067842;28;20496;-74
2021/09/25 11:16:57;;;;;;;4.13;3.35;;;;;;;23.31;nan;100609.03;5072629;28;20040;-73
2021/09/25 11:19:22;;;;;;;5.05;3.60;;;;;;;23.38;nan;100590.03;5046697;28;20127;-73
2021/09/25 11:22:05;;;;;;;5.25;3.60;;;;;;;23.52;nan;100594.94;5069819;28;20124;-73
2021/09/25 11:25:03;;;;;;;4.60;3.35;;;;;;;23.32;nan;100589.09;5063697;28;20122;-73
2021/09/25 11:27:33;;;;;;;5.45;3.30;;;;;;;23.07;nan;100590.16;5070066;28;20044;-74
2021/09/25 11:30:19;;;;;;;3.70;3.08;;;;;;;23.19;nan;100590.16;5051598;28;20040;-73
2021/09/25 11:32:48;;;;;;;4.40;3.08;;;;;;;23.11;nan;100583.22;5069798;28;20043;-73
2021/09/25 11:35:17;;;;;;;4.32;3.30;;;;;;;23.08;nan;100583.69;5069102;28;20036;-73
2021/09/25 11:38:04;;;;;;;3.75;3.20;;;;;;;23.03;nan;100578.19;5069210;28;20139;-72
2021/09/25 11:40:33;;;;;;;4.70;3.45;;;;;;;22.99;nan;100585.09;5065122;28;20120;-73
2021/09/25 11:43:04;;;;;;;4.00;3.22;;;;;;;22.90;nan;100581.88;5069414;28;20028;-72
2021/09/25 11:45:42;;;;;;;5.43;3.17;;;;;;;23.08;nan;100583.69;5075146;28;20036;-72